NCAR-RAP Real-Time Weather Data

Output produced by METARs form (23 February 2020  02:39 UTC)
found at http://weather.rap.ucar.edu/surface/
 
KMGM 230153Z 00000KT 10SM CLR 08/M01 A3036 RMK AO2 SLP283 T00781011 $
KMGM 230053Z 00000KT 10SM CLR 08/M02 A3036 RMK AO2 SLP282 T00831017 $
KMGM 222353Z 00000KT 10SM CLR 11/M04 A3036 RMK AO2 SLP280 T01061044 10144 20106 55008 $
KMGM 222253Z 14003KT 10SM CLR 13/M04 A3035 RMK AO2 SLP278 T01331044 $
KMGM 222153Z 13007KT 10SM CLR 14/M04 A3036 RMK AO2 SLP283 T01441044 $
KMGM 222053Z 00000KT CLR 14/M06 A3038 RMK AO2 SLP289 T01391056 56033 $
KMGM 221953Z VRB03KT 10SM CLR 13/M05 A3041 RMK AO2 SLP299 T01331050 $
KMGM 221853Z 16006KT CLR 13/M04 A3045 RMK AO2 SLP311 T01281039 $
KMGM 221753Z 11005KT 10SM CLR 12/M04 A3048 RMK AO2 SLP322 T01221044 10122 21011 58016 $
KMGM 221653Z 11007KT 10SM CLR 11/M04 A3051 RMK AO2 SLP332 T01111039 $
KMGM 221553Z 07005KT CLR 09/M02 A3052 RMK AO2 SLP336 T00891022 $
KMGM 221453Z 08007KT 10SM CLR 07/00 A3053 RMK AO2 SLP338 T00670000 50013 $
KMGM 221353Z 00000KT 10SM CLR 03/00 A3053 RMK AO2 SLP339 T00330000 $
KMGM 221253Z 00000KT 10SM CLR 01/M03 A3050 RMK AO2 SLP329 T00061028 $
KMGM 221153Z 00000KT CLR M01/M03 A3049 RMK AO2 SLP325 T10111033 10028 21011 53016 $
KMGM 221053Z AUTO 00000KT CLR 01/M03 A3047 RMK AO2 SLP318 T00061028 $
KMGM 220953Z AUTO 33003KT CLR 00/M03 A3045 RMK AO2 SLP311 T00001028 $
KMGM 220853Z AUTO 35003KT CLR 00/M03 A3044 RMK AO2 SLP309 T00001028 58008 $
KMGM 220753Z AUTO 33003KT CLR 01/M03 A3046 RMK AO2 SLP317 T00061028 $
KMGM 220653Z AUTO 00000KT CLR 02/M03 A3047 RMK AO2 SLP319 T00221028 $
KMGM 220553Z AUTO 07003KT CLR 03/M03 A3047 RMK AO2 SLP318 T00281028 10078 20017 401170017 58012 $
KMGM 220453Z 01004KT 10SM CLR 04/M03 A3048 RMK AO2 SLP322 T00391028 $
KMGM 220353Z 01005KT 10SM CLR 04/M03 A3050 RMK AO2 SLP328 T00441028 $
KMGM 220253Z 36004KT 10SM CLR 05/M03 A3050 RMK AO2 SLP330 T00501028 53012 $
KMGM 220153Z 35006KT 10SM CLR 06/M03 A3049 RMK AO2 SLP324 T00561028 $
KMGM 220053Z 36005KT 10SM CLR 07/M02 A3048 RMK AO2 SLP322 T00671022 $
KMGM 212353Z 34005KT 10SM CLR 08/M02 A3047 RMK AO2 SLP318 T00781022 10117 20078 53008 $
KMGM 212253Z 35008KT 10SM CLR 11/M03 A3045 RMK AO2 SLP312 T01061028 $
KMGM 212157Z 33007KT 10SM CLR 12/M03 A3044 RMK AO2 T01171028 $
KMGM 212153Z 34006KT CLR 11/M03 A3044 RMK AO2 SLP309 T01111033 $
KMGM 212053Z 04008KT 10SM CLR 11/M03 A3044 RMK AO2 SLP310 T01111033 56021 $
KMGM 211953Z 35009G17KT 10SM CLR 11/M03 A3045 RMK AO2 SLP312 T01061033 $
KMGM 211853Z 34007KT 10SM CLR 11/M02 A3047 RMK AO2 SLP320 T01061017 $
KMGM 211753Z 31011KT 10SM CLR 09/M01 A3050 RMK AO2 SLP330 T00941011 10094 20028 58006 $
KMGM 211653Z 34012G16KT 10SM CLR 08/M02 A3052 RMK AO2 SLP337 T00831017 $
KMGM 211553Z 01011KT 10SM CLR 07/M02 A3052 RMK AO2 SLP337 T00721017 $
KMGM 211453Z 36012KT CLR 06/M02 A3052 RMK AO2 SLP337 T00561017 51023 $
KMGM 211353Z 36012KT 10SM CLR 04/M02 A3051 RMK AO2 SLP331 T00391017 $
KMGM 211253Z 35008G17KT 10SM CLR 03/M02 A3048 RMK AO2 SLP324 T00281017 $
KMGM 211153Z AUTO 36010KT 10SM BKN035 03/M02 A3046 RMK AO2 SLP314 70145 T00331017 10061 20033 53023 $
KMGM 211053Z AUTO 01010KT 10SM FEW035 03/M01 A3043 RMK AO2 SLP306 T00331011 $
KMGM 210953Z AUTO 36011KT 10SM SCT028 04/M01 A3040 RMK AO2 SLP296 T00441011 $
KMGM 210853Z AUTO 36012G21KT 10SM OVC027 06/00 A3039 RMK AO2 SLP291 T00560000 51007 $
KMGM 210753Z AUTO 36012G20KT 10SM OVC028 06/01 A3038 RMK AO2 SLP289 T00560006 $
KMGM 210653Z AUTO 36010KT 10SM BKN025 BKN030 06/02 A3038 RMK AO2 SLP288 T00610017 $
KMGM 210608Z AUTO 01011KT 10SM BKN025 OVC060 06/02 A3037 RMK AO2 T00610017 $
KMGM 210553Z AUTO 01012KT 10SM SCT024 OVC060 06/02 A3037 RMK AO2 SLP284 60000 T00610017 10078 20061 401280061 50006 $
KMGM 210500Z AUTO 01013G19KT 10SM SCT024 OVC060 07/02 A3037 RMK AO2 T00670017 $
KMGM 210453Z 01014G21KT 10SM BKN024 OVC060 07/02 A3037 RMK AO2 SLP284 T00670017 $
KMGM 210442Z 01012KT 10SM BKN023 BKN043 OVC055 07/02 A3037 RMK AO2 T00670022 $
KMGM 210353Z 01014G18KT 10SM SCT020 OVC038 07/03 A3037 RMK AO2 SLP283 T00670028 $
KMGM 210335Z 01012G21KT 10SM SCT020 OVC038 07/03 A3036 RMK AO2 T00670028 $
KMGM 210253Z 35009KT 10SM OVC019 07/04 A3035 RMK AO2 SLP276 60000 T00720039 51033 $